sensor_id;sensor_type;location;lat;lon;timestamp;P1;P2;P0
69205;PMS7003;56319;48.920;2.332;2023-11-21T00:01:25;1.00;1.00;0.50
69205;PMS7003;56319;48.920;2.332;2023-11-21T00:03:50;2.00;2.00;2.00
69205;PMS7003;56319;48.920;2.332;2023-11-21T00:06:19;2.50;2.50;2.00
69205;PMS7003;56319;48.920;2.332;2023-11-21T00:08:45;3.00;3.00;2.00
69205;PMS7003;56319;48.920;2.332;2023-11-21T00:11:11;2.50;2.00;2.00
69205;PMS7003;56319;48.920;2.332;2023-11-21T00:13:36;2.50;2.00;1.75
69205;PMS7003;56319;48.920;2.332;2023-11-21T00:16:03;2.00;2.00;2.00
69205;PMS7003;56319;48.920;2.332;2023-11-21T00:18:29;2.50;2.25;2.00
69205;PMS7003;56319;48.920;2.332;2023-11-21T00:20:55;2.75;2.75;2.50
69205;PMS7003;56319;48.920;2.332;2023-11-21T00:23:20;3.50;3.00;3.00
69205;PMS7003;56319;48.920;2.332;2023-11-21T00:25:46;1.50;1.50;1.50
69205;PMS7003;56319;48.920;2.332;2023-11-21T00:28:11;2.00;2.00;2.00
69205;PMS7003;56319;48.920;2.332;2023-11-21T00:30:37;2.00;2.00;1.75
69205;PMS7003;56319;48.920;2.332;2023-11-21T00:33:03;3.75;3.00;2.50
69205;PMS7003;56319;48.920;2.332;2023-11-21T00:35:29;2.00;2.00;1.75
69205;PMS7003;56319;48.920;2.332;2023-11-21T00:37:55;4.25;2.00;2.00
69205;PMS7003;56319;48.920;2.332;2023-11-21T00:40:21;2.00;2.00;2.00
69205;PMS7003;56319;48.920;2.332;2023-11-21T00:42:47;3.25;2.00;1.25
69205;PMS7003;56319;48.920;2.332;2023-11-21T00:45:13;2.25;2.25;2.00
69205;PMS7003;56319;48.920;2.332;2023-11-21T00:47:38;1.00;1.00;1.00
69205;PMS7003;56319;48.920;2.332;2023-11-21T00:50:04;3.50;2.50;2.25
69205;PMS7003;56319;48.920;2.332;2023-11-21T00:52:31;5.50;3.75;2.50
69205;PMS7003;56319;48.920;2.332;2023-11-21T00:54:57;3.25;3.25;2.00
69205;PMS7003;56319;48.920;2.332;2023-11-21T00:57:25;4.00;3.00;2.00
69205;PMS7003;56319;48.920;2.332;2023-11-21T00:59:51;3.00;2.00;2.00
69205;PMS7003;56319;48.920;2.332;2023-11-21T01:02:17;2.00;2.00;2.00
69205;PMS7003;56319;48.920;2.332;2023-11-21T01:04:43;4.75;2.25;2.00
69205;PMS7003;56319;48.920;2.332;2023-11-21T01:07:09;2.25;2.25;2.00
69205;PMS7003;56319;48.920;2.332;2023-11-21T01:09:34;3.00;3.00;3.00
69205;PMS7003;56319;48.920;2.332;2023-11-21T01:12:00;2.25;2.25;2.00
69205;PMS7003;56319;48.920;2.332;2023-11-21T01:14:26;2.75;2.75;2.00
69205;PMS7003;56319;48.920;2.332;2023-11-21T01:16:52;2.25;2.25;2.00
69205;PMS7003;56319;48.920;2.332;2023-11-21T01:19:18;2.00;2.00;2.00
69205;PMS7003;56319;48.920;2.332;2023-11-21T01:21:43;3.25;2.50;2.00
69205;PMS7003;56319;48.920;2.332;2023-11-21T01:24:09;4.00;2.25;2.25
69205;PMS7003;56319;48.920;2.332;2023-11-21T01:26:34;2.00;2.00;2.00
69205;PMS7003;56319;48.920;2.332;2023-11-21T01:29:00;3.00;3.00;2.50
69205;PMS7003;56319;48.920;2.332;2023-11-21T01:31:25;3.00;2.00;2.00
69205;PMS7003;56319;48.920;2.332;2023-11-21T01:33:54;2.00;2.00;2.00
69205;PMS7003;56319;48.920;2.332;2023-11-21T01:36:20;4.00;2.00;1.00
69205;PMS7003;56319;48.920;2.332;2023-11-21T01:38:46;3.00;3.00;2.25
69205;PMS7003;56319;48.920;2.332;2023-11-21T01:41:13;3.75;2.50;2.00
69205;PMS7003;56319;48.920;2.332;2023-11-21T01:43:40;2.75;2.00;1.25
69205;PMS7003;56319;48.920;2.332;2023-11-21T01:46:06;2.00;2.00;2.00
69205;PMS7003;56319;48.920;2.332;2023-11-21T01:48:33;2.00;1.00;1.00
69205;PMS7003;56319;48.920;2.332;2023-11-21T01:50:59;4.25;3.00;2.50
69205;PMS7003;56319;48.920;2.332;2023-11-21T01:53:25;2.00;2.00;2.00
69205;PMS7003;56319;48.920;2.332;2023-11-21T01:55:52;3.00;3.00;2.25
69205;PMS7003;56319;48.920;2.332;2023-11-21T01:58:19;2.25;2.25;2.00
69205;PMS7003;56319;48.920;2.332;2023-11-21T02:00:45;2.50;2.50;2.00
69205;PMS7003;56319;48.920;2.332;2023-11-21T02:03:10;3.00;3.00;2.00
69205;PMS7003;56319;48.920;2.332;2023-11-21T02:05:37;3.25;2.00;2.00
69205;PMS7003;56319;48.920;2.332;2023-11-21T02:08:03;2.25;2.00;1.75
69205;PMS7003;56319;48.920;2.332;2023-11-21T02:10:30;2.00;2.00;2.00
69205;PMS7003;56319;48.920;2.332;2023-11-21T02:12:56;3.00;3.00;2.50
69205;PMS7003;56319;48.920;2.332;2023-11-21T02:15:22;2.00;2.00;2.00
69205;PMS7003;56319;48.920;2.332;2023-11-21T02:17:49;2.50;1.75;1.75
69205;PMS7003;56319;48.920;2.332;2023-11-21T02:20:17;3.75;3.75;3.00
69205;PMS7003;56319;48.920;2.332;2023-11-21T02:22:44;2.25;2.25;2.00
69205;PMS7003;56319;48.920;2.332;2023-11-21T02:25:31;2.00;2.00;1.25
69205;PMS7003;56319;48.920;2.332;2023-11-21T02:27:58;3.75;2.00;2.00
69205;PMS7003;56319;48.920;2.332;2023-11-21T02:30:26;2.00;2.00;2.00
69205;PMS7003;56319;48.920;2.332;2023-11-21T02:32:53;2.75;2.00;2.00
69205;PMS7003;56319;48.920;2.332;2023-11-21T02:35:19;3.00;2.00;2.00
69205;PMS7003;56319;48.920;2.332;2023-11-21T02:37:47;2.00;2.00;2.00
69205;PMS7003;56319;48.920;2.332;2023-11-21T02:40:13;3.00;1.25;1.00
69205;PMS7003;56319;48.920;2.332;2023-11-21T02:42:43;2.00;2.00;2.00
69205;PMS7003;56319;48.920;2.332;2023-11-21T02:45:10;2.50;2.50;2.00
69205;PMS7003;56319;48.920;2.332;2023-11-21T02:47:38;2.00;2.00;2.00
69205;PMS7003;56319;48.920;2.332;2023-11-21T02:50:04;2.00;2.00;1.25
69205;PMS7003;56319;48.920;2.332;2023-11-21T02:52:32;2.00;2.00;1.50
69205;PMS7003;56319;48.920;2.332;2023-11-21T02:54:58;2.50;2.50;2.00
69205;PMS7003;56319;48.920;2.332;2023-11-21T02:57:24;3.00;3.00;2.50
69205;PMS7003;56319;48.920;2.332;2023-11-21T02:59:49;2.50;1.50;1.50
69205;PMS7003;56319;48.920;2.332;2023-11-21T03:02:15;3.00;3.00;2.00
69205;PMS7003;56319;48.920;2.332;2023-11-21T03:04:41;3.25;2.00;2.00
69205;PMS7003;56319;48.920;2.332;2023-11-21T03:07:08;2.00;2.00;1.75
69205;PMS7003;56319;48.920;2.332;2023-11-21T03:09:34;2.50;2.50;2.00
69205;PMS7003;56319;48.920;2.332;2023-11-21T03:12:00;2.00;2.00;1.00
69205;PMS7003;56319;48.920;2.332;2023-11-21T03:14:27;3.00;2.00;2.00
69205;PMS7003;56319;48.920;2.332;2023-11-21T03:16:52;2.50;2.50;2.00
69205;PMS7003;56319;48.920;2.332;2023-11-21T03:19:18;3.25;3.00;2.00
69205;PMS7003;56319;48.920;2.332;2023-11-21T03:21:43;5.50;3.25;3.00
69205;PMS7003;56319;48.920;2.332;2023-11-21T03:24:09;2.00;2.00;2.00
69205;PMS7003;56319;48.920;2.332;2023-11-21T03:26:34;2.00;2.00;2.00
69205;PMS7003;56319;48.920;2.332;2023-11-21T03:29:00;2.00;2.00;2.00
69205;PMS7003;56319;48.920;2.332;2023-11-21T03:31:25;2.25;2.25;2.00
69205;PMS7003;56319;48.920;2.332;2023-11-21T03:33:51;3.00;3.00;3.00
69205;PMS7003;56319;48.920;2.332;2023-11-21T03:36:19;2.50;2.50;2.25
69205;PMS7003;56319;48.920;2.332;2023-11-21T03:38:45;2.00;2.00;1.75
69205;PMS7003;56319;48.920;2.332;2023-11-21T03:41:10;4.25;2.25;2.00
69205;PMS7003;56319;48.920;2.332;2023-11-21T03:43:36;2.00;2.00;2.00
69205;PMS7003;56319;48.920;2.332;2023-11-21T03:46:02;1.00;1.00;1.00
69205;PMS7003;56319;48.920;2.332;2023-11-21T03:48:28;2.00;2.00;1.00
69205;PMS7003;56319;48.920;2.332;2023-11-21T03:50:54;3.00;1.00;1.00
69205;PMS7003;56319;48.920;2.332;2023-11-21T03:53:20;3.00;3.00;3.00
69205;PMS7003;56319;48.920;2.332;2023-11-21T03:55:45;2.00;2.00;2.00
69205;PMS7003;56319;48.920;2.332;2023-11-21T03:58:11;3.50;3.00;2.75
69205;PMS7003;56319;48.920;2.332;2023-11-21T04:00:37;2.00;2.00;1.50
69205;PMS7003;56319;48.920;2.332;2023-11-21T04:03:02;3.00;2.00;2.00
69205;PMS7003;56319;48.920;2.332;2023-11-21T04:05:28;3.00;3.00;3.00
69205;PMS7003;56319;48.920;2.332;2023-11-21T04:07:54;3.25;2.25;2.00
69205;PMS7003;56319;48.920;2.332;2023-11-21T04:10:19;3.00;3.00;2.00
69205;PMS7003;56319;48.920;2.332;2023-11-21T04:12:45;4.50;2.00;2.00
69205;PMS7003;56319;48.920;2.332;2023-11-21T04:15:11;3.00;2.00;1.75
69205;PMS7003;56319;48.920;2.332;2023-11-21T04:17:38;6.00;2.00;1.75
69205;PMS7003;56319;48.920;2.332;2023-11-21T04:20:05;2.25;2.00;2.00
69205;PMS7003;56319;48.920;2.332;2023-11-21T04:22:34;1.75;1.00;1.00
69205;PMS7003;56319;48.920;2.332;2023-11-21T04:25:02;4.25;2.75;2.00
69205;PMS7003;56319;48.920;2.332;2023-11-21T04:27:27;2.25;2.00;2.00
69205;PMS7003;56319;48.920;2.332;2023-11-21T04:29:53;2.25;2.00;1.00
69205;PMS7003;56319;48.920;2.332;2023-11-21T04:32:19;2.00;2.00;2.00
69205;PMS7003;56319;48.920;2.332;2023-11-21T04:34:44;3.00;3.00;2.00
69205;PMS7003;56319;48.920;2.332;2023-11-21T04:37:10;2.00;2.00;1.75
69205;PMS7003;56319;48.920;2.332;2023-11-21T04:39:36;2.00;2.00;2.00
69205;PMS7003;56319;48.920;2.332;2023-11-21T04:42:01;1.50;1.50;1.00
69205;PMS7003;56319;48.920;2.332;2023-11-21T04:44:27;2.50;2.50;2.00
69205;PMS7003;56319;48.920;2.332;2023-11-21T04:46:53;2.00;2.00;2.00
69205;PMS7003;56319;48.920;2.332;2023-11-21T04:49:18;2.00;2.00;2.00
69205;PMS7003;56319;48.920;2.332;2023-11-21T04:51:44;2.75;2.75;2.50
69205;PMS7003;56319;48.920;2.332;2023-11-21T04:54:09;1.00;1.00;1.00
69205;PMS7003;56319;48.920;2.332;2023-11-21T04:56:35;2.00;2.00;1.00
69205;PMS7003;56319;48.920;2.332;2023-11-21T04:59:01;1.50;1.50;1.50
69205;PMS7003;56319;48.920;2.332;2023-11-21T05:01:26;2.75;1.75;1.00
69205;PMS7003;56319;48.920;2.332;2023-11-21T05:03:52;2.00;2.00;2.00
69205;PMS7003;56319;48.920;2.332;2023-11-21T05:06:18;2.00;1.50;1.50
69205;PMS7003;56319;48.920;2.332;2023-11-21T05:08:43;2.00;2.00;1.75
69205;PMS7003;56319;48.920;2.332;2023-11-21T05:11:09;2.50;1.50;1.00
69205;PMS7003;56319;48.920;2.332;2023-11-21T05:13:35;3.00;3.00;2.00
69205;PMS7003;56319;48.920;2.332;2023-11-21T05:16:02;2.00;2.00;2.00
69205;PMS7003;56319;48.920;2.332;2023-11-21T05:18:31;4.75;2.00;1.75
69205;PMS7003;56319;48.920;2.332;2023-11-21T05:20:57;2.00;2.00;2.00
69205;PMS7003;56319;48.920;2.332;2023-11-21T05:23:23;2.25;1.50;1.25
69205;PMS7003;56319;48.920;2.332;2023-11-21T05:25:48;1.25;1.25;1.00
69205;PMS7003;56319;48.920;2.332;2023-11-21T05:28:14;1.00;1.00;1.00
69205;PMS7003;56319;48.920;2.332;2023-11-21T05:30:39;1.50;1.25;1.25
69205;PMS7003;56319;48.920;2.332;2023-11-21T05:33:05;2.00;2.00;1.75
69205;PMS7003;56319;48.920;2.332;2023-11-21T05:35:31;2.75;2.00;2.00
69205;PMS7003;56319;48.920;2.332;2023-11-21T05:37:56;2.00;2.00;2.00
69205;PMS7003;56319;48.920;2.332;2023-11-21T05:40:22;3.00;1.25;1.00
69205;PMS7003;56319;48.920;2.332;2023-11-21T05:42:48;2.75;2.00;2.00
69205;PMS7003;56319;48.920;2.332;2023-11-21T05:45:16;1.00;1.00;1.00
69205;PMS7003;56319;48.920;2.332;2023-11-21T05:47:43;3.00;1.00;1.00
69205;PMS7003;56319;48.920;2.332;2023-11-21T05:50:11;2.00;2.00;2.00
69205;PMS7003;56319;48.920;2.332;2023-11-21T05:52:41;2.00;2.00;2.00
69205;PMS7003;56319;48.920;2.332;2023-11-21T05:55:08;2.00;2.00;2.00
69205;PMS7003;56319;48.920;2.332;2023-11-21T05:57:34;1.75;1.75;1.00
69205;PMS7003;56319;48.920;2.332;2023-11-21T06:00:03;3.00;3.00;3.00
69205;PMS7003;56319;48.920;2.332;2023-11-21T06:02:40;1.00;1.00;1.00
69205;PMS7003;56319;48.920;2.332;2023-11-21T06:05:06;1.00;1.00;1.00
69205;PMS7003;56319;48.920;2.332;2023-11-21T06:07:33;2.00;2.00;1.75
69205;PMS7003;56319;48.920;2.332;2023-11-21T06:09:59;2.00;2.00;2.00
69205;PMS7003;56319;48.920;2.332;2023-11-21T06:12:24;1.50;1.50;1.25
69205;PMS7003;56319;48.920;2.332;2023-11-21T06:14:50;1.75;1.75;1.50
69205;PMS7003;56319;48.920;2.332;2023-11-21T06:17:16;6.00;2.00;1.25
69205;PMS7003;56319;48.920;2.332;2023-11-21T06:19:43;1.50;1.50;1.00
69205;PMS7003;56319;48.920;2.332;2023-11-21T06:22:10;2.00;2.00;1.75
69205;PMS7003;56319;48.920;2.332;2023-11-21T06:24:36;1.00;1.00;1.00
69205;PMS7003;56319;48.920;2.332;2023-11-21T06:27:03;1.00;1.00;1.00
69205;PMS7003;56319;48.920;2.332;2023-11-21T06:29:30;2.00;2.00;1.25
69205;PMS7003;56319;48.920;2.332;2023-11-21T06:31:57;1.00;1.00;1.00
69205;PMS7003;56319;48.920;2.332;2023-11-21T06:34:23;1.00;1.00;1.00
69205;PMS7003;56319;48.920;2.332;2023-11-21T06:36:49;1.50;1.50;1.50
69205;PMS7003;56319;48.920;2.332;2023-11-21T06:39:14;1.00;1.00;1.00
69205;PMS7003;56319;48.920;2.332;2023-11-21T06:41:41;2.75;2.00;2.00
69205;PMS7003;56319;48.920;2.332;2023-11-21T06:44:08;2.00;2.00;1.50
69205;PMS7003;56319;48.920;2.332;2023-11-21T06:46:34;1.00;1.00;1.00
69205;PMS7003;56319;48.920;2.332;2023-11-21T06:48:59;2.00;2.00;2.00
69205;PMS7003;56319;48.920;2.332;2023-11-21T06:51:25;2.00;2.00;1.25
69205;PMS7003;56319;48.920;2.332;2023-11-21T06:53:50;2.00;1.00;1.00
69205;PMS7003;56319;48.920;2.332;2023-11-21T06:56:16;2.00;2.00;2.00
69205;PMS7003;56319;48.920;2.332;2023-11-21T06:58:43;1.00;0.00;0.00
69205;PMS7003;56319;48.920;2.332;2023-11-21T07:01:11;2.75;1.25;1.00
69205;PMS7003;56319;48.920;2.332;2023-11-21T07:03:38;2.75;2.00;1.00
69205;PMS7003;56319;48.920;2.332;2023-11-21T07:06:04;2.00;2.00;2.00
69205;PMS7003;56319;48.920;2.332;2023-11-21T07:08:29;1.75;1.75;1.25
69205;PMS7003;56319;48.920;2.332;2023-11-21T07:10:55;1.50;1.50;1.00
69205;PMS7003;56319;48.920;2.332;2023-11-21T07:13:20;0.25;0.25;0.25
69205;PMS7003;56319;48.920;2.332;2023-11-21T07:15:46;1.00;1.00;1.00
69205;PMS7003;56319;48.920;2.332;2023-11-21T07:18:14;1.50;1.50;1.00
69205;PMS7003;56319;48.920;2.332;2023-11-21T07:20:39;1.25;1.25;1.00
69205;PMS7003;56319;48.920;2.332;2023-11-21T07:23:05;1.50;1.50;1.25
69205;PMS7003;56319;48.920;2.332;2023-11-21T07:25:31;2.00;2.00;1.25
69205;PMS7003;56319;48.920;2.332;2023-11-21T07:27:59;2.00;2.00;1.50
69205;PMS7003;56319;48.920;2.332;2023-11-21T07:30:25;1.75;1.00;1.00
69205;PMS7003;56319;48.920;2.332;2023-11-21T07:32:52;3.25;1.00;1.00
69205;PMS7003;56319;48.920;2.332;2023-11-21T07:35:17;4.25;1.25;1.00
69205;PMS7003;56319;48.920;2.332;2023-11-21T07:37:43;1.00;1.00;0.50
69205;PMS7003;56319;48.920;2.332;2023-11-21T07:40:08;3.00;1.50;1.00
69205;PMS7003;56319;48.920;2.332;2023-11-21T07:42:37;0.75;0.75;0.75
69205;PMS7003;56319;48.920;2.332;2023-11-21T07:45:03;3.00;3.00;2.25
69205;PMS7003;56319;48.920;2.332;2023-11-21T07:47:30;2.00;2.00;1.50
69205;PMS7003;56319;48.920;2.332;2023-11-21T07:49:59;2.00;2.00;2.00
69205;PMS7003;56319;48.920;2.332;2023-11-21T07:52:27;2.00;2.00;2.00
69205;PMS7003;56319;48.920;2.332;2023-11-21T07:54:53;1.75;1.75;1.25
69205;PMS7003;56319;48.920;2.332;2023-11-21T07:57:18;1.00;1.00;1.00
69205;PMS7003;56319;48.920;2.332;2023-11-21T07:59:44;2.00;2.00;1.00
69205;PMS7003;56319;48.920;2.332;2023-11-21T08:02:09;1.00;1.00;1.00
69205;PMS7003;56319;48.920;2.332;2023-11-21T08:04:35;1.00;1.00;0.50
69205;PMS7003;56319;48.920;2.332;2023-11-21T08:07:01;0.00;0.00;0.00
69205;PMS7003;56319;48.920;2.332;2023-11-21T08:09:27;2.00;2.00;1.50
69205;PMS7003;56319;48.920;2.332;2023-11-21T08:11:52;2.00;2.00;2.00
69205;PMS7003;56319;48.920;2.332;2023-11-21T08:14:18;1.00;1.00;1.00
69205;PMS7003;56319;48.920;2.332;2023-11-21T08:16:45;0.00;0.00;0.00
69205;PMS7003;56319;48.920;2.332;2023-11-21T08:19:11;2.00;2.00;2.00
69205;PMS7003;56319;48.920;2.332;2023-11-21T08:21:36;2.00;2.00;2.00
69205;PMS7003;56319;48.920;2.332;2023-11-21T08:24:05;1.75;1.75;1.75
69205;PMS7003;56319;48.920;2.332;2023-11-21T08:26:35;1.00;1.00;1.00
69205;PMS7003;56319;48.920;2.332;2023-11-21T08:29:01;1.50;1.50;1.50
69205;PMS7003;56319;48.920;2.332;2023-11-21T08:31:26;6.00;2.00;2.00
69205;PMS7003;56319;48.920;2.332;2023-11-21T08:33:52;3.50;2.00;2.00
69205;PMS7003;56319;48.920;2.332;2023-11-21T08:36:21;2.00;2.00;1.75
69205;PMS7003;56319;48.920;2.332;2023-11-21T08:38:49;0.00;0.00;0.00
69205;PMS7003;56319;48.920;2.332;2023-11-21T08:41:17;3.00;3.00;2.50
69205;PMS7003;56319;48.920;2.332;2023-11-21T08:43:47;3.00;2.00;2.00
69205;PMS7003;56319;48.920;2.332;2023-11-21T08:46:13;2.75;2.75;2.00
69205;PMS7003;56319;48.920;2.332;2023-11-21T08:48:40;3.00;2.00;2.00
69205;PMS7003;56319;48.920;2.332;2023-11-21T08:51:06;2.75;2.00;1.50
69205;PMS7003;56319;48.920;2.332;2023-11-21T08:53:32;1.00;1.00;1.00
69205;PMS7003;56319;48.920;2.332;2023-11-21T08:55:57;1.00;1.00;1.00
69205;PMS7003;56319;48.920;2.332;2023-11-21T08:58:23;1.75;1.75;1.00
69205;PMS7003;56319;48.920;2.332;2023-11-21T09:00:49;2.75;2.00;2.00
69205;PMS7003;56319;48.920;2.332;2023-11-21T09:03:14;1.00;1.00;1.00
69205;PMS7003;56319;48.920;2.332;2023-11-21T09:05:39;2.50;2.50;2.00
69205;PMS7003;56319;48.920;2.332;2023-11-21T09:08:05;1.75;1.75;1.25
69205;PMS7003;56319;48.920;2.332;2023-11-21T09:10:32;2.25;2.25;2.00
69205;PMS7003;56319;48.920;2.332;2023-11-21T09:13:00;2.00;2.00;1.00
69205;PMS7003;56319;48.920;2.332;2023-11-21T09:15:27;2.00;2.00;2.00
69205;PMS7003;56319;48.920;2.332;2023-11-21T09:17:52;2.00;2.00;1.75
69205;PMS7003;56319;48.920;2.332;2023-11-21T09:20:18;3.00;1.25;1.25
69205;PMS7003;56319;48.920;2.332;2023-11-21T09:22:47;4.00;2.75;2.00
69205;PMS7003;56319;48.920;2.332;2023-11-21T09:25:13;2.00;2.00;1.00
69205;PMS7003;56319;48.920;2.332;2023-11-21T09:27:39;1.00;1.00;1.00
69205;PMS7003;56319;48.920;2.332;2023-11-21T09:30:05;2.75;2.75;2.00
69205;PMS7003;56319;48.920;2.332;2023-11-21T09:32:34;2.00;2.00;1.50
69205;PMS7003;56319;48.920;2.332;2023-11-21T09:35:02;2.00;2.00;2.00
69205;PMS7003;56319;48.920;2.332;2023-11-21T09:37:28;3.00;2.00;2.00
69205;PMS7003;56319;48.920;2.332;2023-11-21T09:39:54;1.75;1.75;1.00
69205;PMS7003;56319;48.920;2.332;2023-11-21T09:42:23;1.50;1.50;1.00
69205;PMS7003;56319;48.920;2.332;2023-11-21T09:45:17;2.00;2.00;2.00
69205;PMS7003;56319;48.920;2.332;2023-11-21T09:47:45;1.00;1.00;1.00
69205;PMS7003;56319;48.920;2.332;2023-11-21T09:50:12;1.75;1.00;1.00
69205;PMS7003;56319;48.920;2.332;2023-11-21T09:52:49;2.00;2.00;1.75
69205;PMS7003;56319;48.920;2.332;2023-11-21T09:55:22;2.00;2.00;2.00
69205;PMS7003;56319;48.920;2.332;2023-11-21T09:57:52;2.25;2.25;2.00
69205;PMS7003;56319;48.920;2.332;2023-11-21T10:00:19;1.25;1.25;1.00
69205;PMS7003;56319;48.920;2.332;2023-11-21T10:02:49;2.00;2.00;1.00
69205;PMS7003;56319;48.920;2.332;2023-11-21T10:05:16;2.75;2.00;2.00
69205;PMS7003;56319;48.920;2.332;2023-11-21T10:07:43;2.00;2.00;2.00
69205;PMS7003;56319;48.920;2.332;2023-11-21T10:10:10;1.00;1.00;0.00
69205;PMS7003;56319;48.920;2.332;2023-11-21T10:12:37;1.00;1.00;1.00
69205;PMS7003;56319;48.920;2.332;2023-11-21T10:15:03;1.75;1.75;1.00
69205;PMS7003;56319;48.920;2.332;2023-11-21T10:17:35;1.00;1.00;1.00
69205;PMS7003;56319;48.920;2.332;2023-11-21T10:20:08;3.75;1.75;1.75
69205;PMS7003;56319;48.920;2.332;2023-11-21T10:22:38;1.00;1.00;1.00
69205;PMS7003;56319;48.920;2.332;2023-11-21T10:25:06;2.00;2.00;2.00
69205;PMS7003;56319;48.920;2.332;2023-11-21T10:27:33;3.00;2.00;2.00
69205;PMS7003;56319;48.920;2.332;2023-11-21T10:30:01;1.25;1.25;1.25
69205;PMS7003;56319;48.920;2.332;2023-11-21T10:32:29;2.00;1.50;1.00
69205;PMS7003;56319;48.920;2.332;2023-11-21T10:34:59;1.25;1.25;1.00
69205;PMS7003;56319;48.920;2.332;2023-11-21T10:37:31;2.00;2.00;1.00
69205;PMS7003;56319;48.920;2.332;2023-11-21T10:39:58;3.00;1.00;1.00
69205;PMS7003;56319;48.920;2.332;2023-11-21T10:42:24;2.00;1.25;1.00
69205;PMS7003;56319;48.920;2.332;2023-11-21T10:44:51;1.25;1.00;1.00
69205;PMS7003;56319;48.920;2.332;2023-11-21T10:47:17;2.25;1.00;1.00
69205;PMS7003;56319;48.920;2.332;2023-11-21T10:49:44;2.00;2.00;2.00
69205;PMS7003;56319;48.920;2.332;2023-11-21T10:52:13;1.50;1.00;1.00
69205;PMS7003;56319;48.920;2.332;2023-11-21T10:54:43;2.00;1.00;1.00
69205;PMS7003;56319;48.920;2.332;2023-11-21T10:57:09;1.50;1.50;1.50
69205;PMS7003;56319;48.920;2.332;2023-11-21T10:59:36;1.75;1.75;1.00
69205;PMS7003;56319;48.920;2.332;2023-11-21T11:02:04;0.00;0.00;0.00
69205;PMS7003;56319;48.920;2.332;2023-11-21T11:04:53;0.00;0.00;0.00
69205;PMS7003;56319;48.920;2.332;2023-11-21T11:07:21;1.75;1.75;1.00
69205;PMS7003;56319;48.920;2.332;2023-11-21T11:09:52;0.75;0.75;0.00
69205;PMS7003;56319;48.920;2.332;2023-11-21T11:12:20;0.75;0.75;0.75
69205;PMS7003;56319;48.920;2.332;2023-11-21T11:14:46;1.00;1.00;1.00
69205;PMS7003;56319;48.920;2.332;2023-11-21T11:17:13;2.00;2.00;1.50
69205;PMS7003;56319;48.920;2.332;2023-11-21T11:19:38;1.00;1.00;1.00
69205;PMS7003;56319;48.920;2.332;2023-11-21T11:22:14;1.75;1.00;1.00
69205;PMS7003;56319;48.920;2.332;2023-11-21T11:25:00;1.00;1.00;1.00
69205;PMS7003;56319;48.920;2.332;2023-11-21T11:27:46;1.00;1.00;1.00
69205;PMS7003;56319;48.920;2.332;2023-11-21T11:30:38;1.00;1.00;1.00
69205;PMS7003;56319;48.920;2.332;2023-11-21T11:33:34;0.00;0.00;0.00
69205;PMS7003;56319;48.920;2.332;2023-11-21T11:36:10;1.25;1.25;1.00
69205;PMS7003;56319;48.920;2.332;2023-11-21T11:38:45;1.00;1.00;1.00
69205;PMS7003;56319;48.920;2.332;2023-11-21T11:41:11;2.00;2.00;1.25
69205;PMS7003;56319;48.920;2.332;2023-11-21T11:43:38;1.00;1.00;1.00
69205;PMS7003;56319;48.920;2.332;2023-11-21T11:46:09;0.25;0.25;0.25
69205;PMS7003;56319;48.920;2.332;2023-11-21T11:48:39;1.00;1.00;1.00
69205;PMS7003;56319;48.920;2.332;2023-11-21T11:51:06;0.75;0.75;0.75
69205;PMS7003;56319;48.920;2.332;2023-11-21T11:53:38;1.25;0.50;0.50
69205;PMS7003;56319;48.920;2.332;2023-11-21T11:56:18;1.00;1.00;1.00
69205;PMS7003;56319;48.920;2.332;2023-11-21T11:58:48;2.00;1.00;0.50
69205;PMS7003;56319;48.920;2.332;2023-11-21T12:01:16;0.50;0.50;0.50
69205;PMS7003;56319;48.920;2.332;2023-11-21T12:03:44;1.25;1.00;1.00
69205;PMS7003;56319;48.920;2.332;2023-11-21T12:06:09;1.25;0.75;0.50
69205;PMS7003;56319;48.920;2.332;2023-11-21T12:08:37;0.00;0.00;0.00
69205;PMS7003;56319;48.920;2.332;2023-11-21T12:11:03;1.00;1.00;0.25
69205;PMS7003;56319;48.920;2.332;2023-11-21T12:13:29;0.50;0.00;0.00
69205;PMS7003;56319;48.920;2.332;2023-11-21T12:15:55;0.75;0.75;0.50
69205;PMS7003;56319;48.920;2.332;2023-11-21T12:18:21;1.00;1.00;0.75
69205;PMS7003;56319;48.920;2.332;2023-11-21T12:20:46;0.50;0.50;0.00
69205;PMS7003;56319;48.920;2.332;2023-11-21T12:23:15;0.50;0.50;0.50
69205;PMS7003;56319;48.920;2.332;2023-11-21T12:25:42;1.00;1.00;1.00
69205;PMS7003;56319;48.920;2.332;2023-11-21T12:28:08;1.00;1.00;1.00
69205;PMS7003;56319;48.920;2.332;2023-11-21T12:30:34;1.50;0.00;0.00
69205;PMS7003;56319;48.920;2.332;2023-11-21T12:33:03;0.50;0.50;0.25
69205;PMS7003;56319;48.920;2.332;2023-11-21T12:35:31;0.00;0.00;0.00
69205;PMS7003;56319;48.920;2.332;2023-11-21T12:37:59;1.50;1.00;0.00
69205;PMS7003;56319;48.920;2.332;2023-11-21T12:40:28;1.00;1.00;1.00
69205;PMS7003;56319;48.920;2.332;2023-11-21T12:42:56;1.00;1.00;1.00
69205;PMS7003;56319;48.920;2.332;2023-11-21T12:45:24;0.00;0.00;0.00
69205;PMS7003;56319;48.920;2.332;2023-11-21T12:50:38;1.00;1.00;1.00
69205;PMS7003;56319;48.920;2.332;2023-11-21T12:53:05;1.25;1.00;1.00
69205;PMS7003;56319;48.920;2.332;2023-11-21T12:55:35;0.50;0.50;0.50
69205;PMS7003;56319;48.920;2.332;2023-11-21T12:58:03;0.75;0.75;0.75
69205;PMS7003;56319;48.920;2.332;2023-11-21T13:00:49;0.25;0.25;0.00
69205;PMS7003;56319;48.920;2.332;2023-11-21T13:03:17;0.00;0.00;0.00
69205;PMS7003;56319;48.920;2.332;2023-11-21T13:05:43;1.00;0.00;0.00
69205;PMS7003;56319;48.920;2.332;2023-11-21T13:08:11;0.00;0.00;0.00
69205;PMS7003;56319;48.920;2.332;2023-11-21T13:10:39;0.00;0.00;0.00
69205;PMS7003;56319;48.920;2.332;2023-11-21T13:13:07;0.00;0.00;0.00
69205;PMS7003;56319;48.920;2.332;2023-11-21T13:15:34;0.00;0.00;0.00
69205;PMS7003;56319;48.920;2.332;2023-11-21T13:18:03;1.00;1.00;1.00
69205;PMS7003;56319;48.920;2.332;2023-11-21T13:20:29;0.00;0.00;0.00
69205;PMS7003;56319;48.920;2.332;2023-11-21T13:22:55;0.25;0.00;0.00
69205;PMS7003;56319;48.920;2.332;2023-11-21T13:25:25;0.00;0.00;0.00
69205;PMS7003;56319;48.920;2.332;2023-11-21T13:27:54;0.00;0.00;0.00
69205;PMS7003;56319;48.920;2.332;2023-11-21T13:30:20;0.00;0.00;0.00
69205;PMS7003;56319;48.920;2.332;2023-11-21T13:32:51;0.00;0.00;0.00
69205;PMS7003;56319;48.920;2.332;2023-11-21T13:35:18;0.00;0.00;0.00
69205;PMS7003;56319;48.920;2.332;2023-11-21T13:37:47;0.25;0.25;0.25
69205;PMS7003;56319;48.920;2.332;2023-11-21T13:40:15;0.00;0.00;0.00
69205;PMS7003;56319;48.920;2.332;2023-11-21T13:42:45;1.00;1.00;0.00
69205;PMS7003;56319;48.920;2.332;2023-11-21T13:45:11;0.00;0.00;0.00
69205;PMS7003;56319;48.920;2.332;2023-11-21T13:47:38;0.25;0.25;0.00
69205;PMS7003;56319;48.920;2.332;2023-11-21T13:50:05;0.00;0.00;0.00
69205;PMS7003;56319;48.920;2.332;2023-11-21T13:52:39;1.00;1.00;1.00
69205;PMS7003;56319;48.920;2.332;2023-11-21T13:55:04;0.00;0.00;0.00
69205;PMS7003;56319;48.920;2.332;2023-11-21T13:57:36;0.00;0.00;0.00
69205;PMS7003;56319;48.920;2.332;2023-11-21T14:00:03;0.00;0.00;0.00
69205;PMS7003;56319;48.920;2.332;2023-11-21T14:02:36;0.00;0.00;0.00
69205;PMS7003;56319;48.920;2.332;2023-11-21T14:05:07;1.00;1.00;1.00
69205;PMS7003;56319;48.920;2.332;2023-11-21T14:07:34;0.00;0.00;0.00
69205;PMS7003;56319;48.920;2.332;2023-11-21T14:10:02;1.00;1.00;0.75
69205;PMS7003;56319;48.920;2.332;2023-11-21T14:12:28;0.00;0.00;0.00
69205;PMS7003;56319;48.920;2.332;2023-11-21T14:14:59;0.00;0.00;0.00
69205;PMS7003;56319;48.920;2.332;2023-11-21T14:17:25;0.50;0.50;0.00
69205;PMS7003;56319;48.920;2.332;2023-11-21T14:19:52;0.50;0.50;0.50
69205;PMS7003;56319;48.920;2.332;2023-11-21T14:22:20;0.00;0.00;0.00
69205;PMS7003;56319;48.920;2.332;2023-11-21T14:24:46;0.00;0.00;0.00
69205;PMS7003;56319;48.920;2.332;2023-11-21T14:27:12;0.25;0.25;0.25